createdAt,value
2023-01-09T00:01:13.073Z,6.91
2023-01-09T00:06:15.192Z,7.10
2023-01-09T00:11:17.584Z,7.10
2023-01-09T00:16:19.875Z,6.68
2023-01-09T00:21:22.323Z,6.91
2023-01-09T00:26:26.451Z,6.61
2023-01-09T00:31:28.756Z,6.96
2023-01-09T00:36:31.003Z,6.72
2023-01-09T00:41:40.391Z,6.59
2023-01-09T00:46:46.740Z,6.42
2023-01-09T00:51:49.221Z,6.62
2023-01-09T00:56:52.392Z,6.50
2023-01-09T01:01:54.994Z,6.71
2023-01-09T01:07:15.879Z,6.66
2023-01-09T01:12:18.181Z,6.58
2023-01-09T01:17:20.337Z,7.17
2023-01-09T01:22:22.503Z,6.42
2023-01-09T01:27:24.808Z,6.72
2023-01-09T01:32:27.079Z,6.62
2023-01-09T01:37:29.335Z,6.56
2023-01-09T01:42:31.593Z,7.13
2023-01-09T01:47:55.111Z,6.38
2023-01-09T01:53:05.975Z,6.61
2023-01-09T01:58:10.435Z,6.38
2023-01-09T02:03:16.085Z,6.84
2023-01-09T02:08:19.633Z,6.51
2023-01-09T02:13:21.768Z,6.54
2023-01-09T02:18:29.779Z,6.65
2023-01-09T02:23:56.715Z,6.29
2023-01-09T02:29:17.527Z,6.88
2023-01-09T02:34:38.469Z,6.68
2023-01-09T02:39:49.719Z,6.60
2023-01-09T02:44:51.824Z,6.67
2023-01-09T02:49:56.700Z,6.75
2023-01-09T02:55:09.647Z,6.81
2023-01-09T03:00:14.666Z,6.50
2023-01-09T03:05:24.699Z,6.78
2023-01-09T03:10:44.385Z,6.55
2023-01-09T03:15:49.638Z,5.84
2023-01-09T03:20:53.260Z,6.36
2023-01-09T03:25:55.582Z,6.44
2023-01-09T03:30:57.658Z,6.43
2023-01-09T03:35:59.783Z,6.48
2023-01-09T03:41:02.177Z,6.27
2023-01-09T03:46:04.533Z,6.40
2023-01-09T03:51:06.836Z,6.17
2023-01-09T03:56:09.037Z,6.34
2023-01-09T04:01:14.110Z,6.34
2023-01-09T04:06:16.279Z,6.48
2023-01-09T04:11:18.418Z,6.56
2023-01-09T04:16:20.520Z,6.53
2023-01-09T04:21:22.811Z,6.73
2023-01-09T04:26:25.050Z,6.43
2023-01-09T04:31:27.380Z,6.16
2023-01-09T04:36:29.566Z,6.18
2023-01-09T04:41:49.992Z,6.75
2023-01-09T04:46:53.010Z,6.34
2023-01-09T04:51:55.200Z,6.63
2023-01-09T04:56:57.515Z,6.40
2023-01-09T05:02:00.288Z,6.29
2023-01-09T05:07:04.193Z,6.13
2023-01-09T05:12:06.775Z,6.25
2023-01-09T05:17:08.809Z,5.80
2023-01-09T05:22:12.198Z,5.88
2023-01-09T05:27:14.224Z,6.04
2023-01-09T05:32:16.472Z,5.97
2023-01-09T05:37:18.735Z,5.61
2023-01-09T05:42:21.088Z,6.18
2023-01-09T05:47:23.202Z,6.23
2023-01-09T05:52:25.491Z,6.41
2023-01-09T05:57:28.761Z,5.90
2023-01-09T06:02:30.971Z,6.20
2023-01-09T06:07:36.552Z,5.79
2023-01-09T06:12:38.777Z,6.39
2023-01-09T06:17:41.356Z,6.01
2023-01-09T06:22:45.212Z,5.70
2023-01-09T06:27:47.312Z,6.03
2023-01-09T06:32:49.544Z,5.95
2023-01-09T06:37:51.667Z,5.92
2023-01-09T06:42:53.706Z,5.77
2023-01-09T06:47:55.836Z,5.75
2023-01-09T06:52:58.105Z,5.84
2023-01-09T06:58:00.141Z,5.62
2023-01-09T07:03:02.320Z,5.77
2023-01-09T07:08:04.642Z,5.58
2023-01-09T07:13:06.755Z,5.58
2023-01-09T07:18:08.925Z,5.41
2023-01-09T07:23:14.301Z,6.06
2023-01-09T07:28:16.463Z,5.75
2023-01-09T07:33:18.578Z,5.73
2023-01-09T07:38:20.644Z,5.45
2023-01-09T07:43:22.781Z,5.93
2023-01-09T07:48:24.832Z,5.74
2023-01-09T07:53:26.915Z,5.60
2023-01-09T07:58:29.073Z,5.59
2023-01-09T08:03:33.390Z,5.95
2023-01-09T08:08:35.555Z,5.79
2023-01-09T08:13:37.918Z,5.83
2023-01-09T08:18:40.017Z,5.79
2023-01-09T08:23:42.250Z,5.63
2023-01-09T08:28:44.393Z,6.13
2023-01-09T08:33:46.461Z,5.87
2023-01-09T08:38:48.589Z,5.86
2023-01-09T08:44:09.123Z,5.60
2023-01-09T08:49:11.207Z,5.50
2023-01-09T08:54:13.333Z,5.70
2023-01-09T08:59:15.744Z,6.05
2023-01-09T09:04:18.269Z,6.12
2023-01-09T09:09:20.361Z,5.97
2023-01-09T09:14:41.004Z,6.17
2023-01-09T09:19:43.065Z,6.13
2023-01-09T09:24:45.107Z,6.34
2023-01-09T09:29:47.171Z,6.45
2023-01-09T09:34:49.217Z,6.79
2023-01-09T09:39:51.342Z,6.65
2023-01-09T09:45:10.841Z,6.56
2023-01-09T09:50:15.990Z,6.31
2023-01-09T09:55:29.166Z,6.25
2023-01-09T10:00:31.506Z,6.44
2023-01-09T10:05:36.648Z,6.55
2023-01-09T10:10:41.443Z,6.55
2023-01-09T10:15:48.617Z,7.00
2023-01-09T10:20:57.105Z,6.87
2023-01-09T10:26:09.041Z,7.03
2023-01-09T10:31:28.459Z,6.22
2023-01-09T10:36:42.771Z,6.90
2023-01-09T10:41:56.070Z,6.87
2023-01-09T10:46:59.598Z,7.13
2023-01-09T10:52:20.463Z,6.72
2023-01-09T10:57:44.946Z,6.87
2023-01-09T11:02:47.475Z,7.59
2023-01-09T11:07:53.959Z,7.30
2023-01-09T11:13:14.964Z,7.00
2023-01-09T11:18:20.481Z,7.06
2023-01-09T11:23:30.304Z,7.02
2023-01-09T11:28:32.467Z,7.12
2023-01-09T11:33:37.760Z,6.75
2023-01-09T11:38:52.631Z,7.60
2023-01-09T11:43:57.539Z,7.21
2023-01-09T11:49:01.364Z,7.44
2023-01-09T11:54:34.318Z,7.31
2023-01-09T11:59:36.551Z,7.27
2023-01-09T12:05:26.883Z,7.33
2023-01-09T12:11:01.136Z,7.65
2023-01-09T12:16:18.028Z,7.18
2023-01-09T12:21:40.246Z,7.12
2023-01-09T12:26:53.165Z,7.49
2023-01-09T12:32:18.243Z,6.97
2023-01-09T12:37:48.789Z,6.73
2023-01-09T12:42:54.043Z,7.04
2023-01-09T12:48:04.857Z,7.11
2023-01-09T12:53:22.459Z,7.05
2023-01-09T12:58:41.150Z,6.52
2023-01-09T13:03:52.801Z,6.88
2023-01-09T13:09:14.997Z,6.57
2023-01-09T13:14:37.786Z,6.92
2023-01-09T13:19:43.134Z,6.65
2023-01-09T13:24:57.181Z,6.86
2023-01-09T13:30:09.699Z,6.75
2023-01-09T13:35:15.797Z,6.92
2023-01-09T13:40:20.830Z,6.99
2023-01-09T13:45:28.846Z,7.03
2023-01-09T13:50:31.224Z,6.88
2023-01-09T13:55:35.877Z,6.83
2023-01-09T14:00:38.643Z,6.66
2023-01-09T14:05:40.625Z,6.74
2023-01-09T14:10:50.864Z,6.49
2023-01-09T14:16:02.010Z,6.88
2023-01-09T14:21:10.258Z,6.94
2023-01-09T14:26:20.779Z,6.76
2023-01-09T14:31:31.297Z,6.61
2023-01-09T14:36:34.372Z,7.02
2023-01-09T14:41:57.847Z,7.08
2023-01-09T14:47:34.058Z,6.47
2023-01-09T14:52:39.481Z,6.69
2023-01-09T14:57:41.579Z,6.77
2023-01-09T15:02:44.202Z,6.57
2023-01-09T15:07:52.785Z,6.68
2023-01-09T15:12:56.362Z,6.83
2023-01-09T15:18:00.609Z,6.93
2023-01-09T15:23:05.850Z,6.77
2023-01-09T15:28:26.258Z,6.72
2023-01-09T15:33:28.598Z,6.58
2023-01-09T15:38:33.064Z,6.66
2023-01-09T15:43:39.916Z,6.85
2023-01-09T15:48:42.420Z,7.00
2023-01-09T15:53:47.020Z,6.98
2023-01-09T15:58:51.400Z,6.52
2023-01-09T16:03:58.604Z,6.97
2023-01-09T16:09:04.076Z,6.71
2023-01-09T16:14:13.597Z,6.64
2023-01-09T16:19:32.374Z,6.48
2023-01-09T16:24:43.705Z,6.17
2023-01-09T16:29:50.947Z,6.03
2023-01-09T16:34:56.310Z,6.55
2023-01-09T16:40:24.028Z,6.67
2023-01-09T16:45:36.593Z,6.14
2023-01-09T16:50:39.106Z,6.32
2023-01-09T16:55:41.310Z,5.51
2023-01-09T17:00:43.446Z,6.13
2023-01-09T17:05:48.160Z,6.23
2023-01-09T17:10:53.538Z,5.80
2023-01-09T17:15:57.180Z,5.69
2023-01-09T17:20:59.414Z,6.01
2023-01-09T17:26:21.638Z,5.86
2023-01-09T17:31:26.133Z,5.68
2023-01-09T17:36:32.037Z,5.94
2023-01-09T17:41:34.417Z,6.09
2023-01-09T17:46:39.762Z,5.84
2023-01-09T17:51:41.815Z,6.24
2023-01-09T17:56:47.124Z,6.55
2023-01-09T18:01:49.380Z,6.22
2023-01-09T18:06:53.324Z,6.52
2023-01-09T18:11:55.465Z,6.33
2023-01-09T18:16:57.800Z,6.46
2023-01-09T18:22:00.364Z,6.48
2023-01-09T18:27:03.766Z,6.21
2023-01-09T18:32:05.913Z,6.88
2023-01-09T18:37:08.275Z,6.72
2023-01-09T18:42:10.687Z,6.35
2023-01-09T18:47:14.139Z,6.37
2023-01-09T18:52:16.451Z,6.27
2023-01-09T18:57:18.727Z,6.21
2023-01-09T19:02:23.934Z,6.51
2023-01-09T19:07:26.230Z,6.02
2023-01-09T19:12:28.604Z,6.25
2023-01-09T19:17:31.303Z,5.90
2023-01-09T19:22:33.911Z,5.94
2023-01-09T19:27:36.114Z,6.04
2023-01-09T19:32:39.828Z,6.15
2023-01-09T19:37:42.113Z,6.38
2023-01-09T19:42:44.509Z,6.52
2023-01-09T19:47:47.945Z,6.20
2023-01-09T19:52:50.870Z,6.40
2023-01-09T19:57:53.045Z,6.44
2023-01-09T20:02:55.880Z,6.20
2023-01-09T20:07:58.246Z,6.41
2023-01-09T20:13:00.601Z,6.30
2023-01-09T20:18:04.172Z,6.54
2023-01-09T20:23:06.243Z,6.35
2023-01-09T20:28:09.516Z,6.53
2023-01-09T20:33:11.959Z,6.11
2023-01-09T20:38:15.111Z,6.21
2023-01-09T20:43:18.409Z,6.52
2023-01-09T20:48:21.534Z,6.32
2023-01-09T20:53:24.731Z,6.80
2023-01-09T20:58:28.636Z,6.14
2023-01-09T21:03:31.128Z,6.22
2023-01-09T21:08:34.393Z,6.31
2023-01-09T21:13:36.838Z,5.99
2023-01-09T21:18:39.804Z,6.51
2023-01-09T21:23:47.456Z,6.10
2023-01-09T21:28:50.935Z,6.20
2023-01-09T21:33:54.607Z,6.39
2023-01-09T21:38:59.839Z,6.25
2023-01-09T21:44:20.556Z,6.02
2023-01-09T21:49:25.632Z,6.14
2023-01-09T21:54:27.940Z,6.18
2023-01-09T21:59:30.097Z,6.48
2023-01-09T22:04:33.470Z,6.23
2023-01-09T22:09:36.825Z,6.02
2023-01-09T22:14:39.684Z,6.00
2023-01-09T22:19:43.160Z,6.52
2023-01-09T22:24:47.347Z,6.23
2023-01-09T22:29:49.618Z,6.17
2023-01-09T22:34:51.689Z,6.37
2023-01-09T22:39:53.927Z,6.39
2023-01-09T22:44:56.136Z,6.67
2023-01-09T22:49:58.185Z,6.80
2023-01-09T22:55:00.276Z,6.49
2023-01-09T23:00:02.577Z,6.50
2023-01-09T23:05:04.955Z,6.66
2023-01-09T23:10:07.545Z,6.55
2023-01-09T23:15:09.841Z,6.52
2023-01-09T23:20:12.312Z,6.32
2023-01-09T23:25:15.639Z,6.11
2023-01-09T23:30:17.842Z,6.00
2023-01-09T23:35:20.327Z,6.02
2023-01-09T23:40:22.685Z,6.16
2023-01-09T23:45:24.968Z,5.92
2023-01-09T23:50:27.285Z,6.32
2023-01-09T23:55:29.644Z,6.02
